Terminal Aerodrome Forecast
Issued by NWS

Home | Current Version | Previous Version | Text Only | Print | Product List | Glossary On
Versions: 1 2 3 4 5 6 7 8 9 10 11 12 13 14 15 16 17 18 19 20 21
000
FTUS43 KDTX 030520
TAFMBS
TAF
KMBS 030520Z 0306/0406 VRB03KT P6SM SCT200
     FM031000 27004KT 3SM BR SCT025
     FM031400 31005KT P6SM SCT040
     FM032100 35009KT P6SM SCT045 BKN100
     FM040100 VRB03KT P6SM SCT100=

USA.gov is the U.S. government's official web portal to all federal, state and local government web resources and services.